Time;durP1;ratioP1;P1;durP2;ratioP2;P2;SDS_P1;SDS_P2;PMS_P1;PMS_P2;Temp;Humidity;BMP_temperature;BMP_pressure;BME280_temperature;BME280_humidity;BME280_pressure;Samples;Min_cycle;Max_cycle;Signal;HPM_P1;HPM_P2
2022/10/24 00:01:16;;;;;;;;;3.40;3.40;;;;;16.95;76.26;99017.00;5096556;28;8914;-63
2022/10/24 00:03:43;;;;;;;;;0.00;0.00;;;;;16.95;76.02;99019.69;5096825;28;8907;-63
2022/10/24 00:06:11;;;;;;;;;3.00;1.80;;;;;16.94;76.14;98999.22;5096584;28;8822;-60
2022/10/24 00:08:39;;;;;;;;;0.00;0.00;;;;;16.94;76.00;99001.91;5097037;28;9585;-62
2022/10/24 00:11:07;;;;;;;;;5.00;4.40;;;;;16.94;76.23;98990.31;5096707;28;8906;-62
2022/10/24 00:13:35;;;;;;;;;4.00;3.60;;;;;16.92;75.88;98985.13;5096518;28;8895;-61
2022/10/24 00:16:02;;;;;;;;;0.80;0.80;;;;;16.92;76.58;98989.66;5096879;28;8822;-62
2022/10/24 00:18:30;;;;;;;;;4.00;3.80;;;;;16.91;76.10;98982.59;5096712;28;8882;-60
2022/10/24 00:20:58;;;;;;;;;4.00;3.00;;;;;16.94;76.26;98979.56;5096718;28;8814;-60
2022/10/24 00:23:26;;;;;;;;;6.00;6.00;;;;;16.95;76.40;98998.19;5096494;28;8826;-61
2022/10/24 00:25:53;;;;;;;;;3.80;3.80;;;;;16.96;75.67;98991.81;5096107;28;8907;-60
2022/10/24 00:28:21;;;;;;;;;3.00;3.00;;;;;16.96;75.90;98977.50;5096142;28;8854;-62
2022/10/24 00:30:48;;;;;;;;;1.00;1.00;;;;;16.94;76.51;98988.44;5096568;28;8903;-60
2022/10/24 00:33:16;;;;;;;;;3.40;3.20;;;;;16.96;76.47;98985.59;5096453;28;8861;-62
2022/10/24 00:35:44;;;;;;;;;3.80;3.60;;;;;16.94;76.37;98984.94;5095388;28;8837;-62
2022/10/24 00:38:11;;;;;;;;;3.00;1.00;;;;;16.90;76.16;98972.88;5096063;28;8833;-63
2022/10/24 00:40:39;;;;;;;;;4.40;4.00;;;;;16.88;76.46;98967.69;5096079;28;8830;-62
2022/10/24 00:43:07;;;;;;;;;4.00;4.00;;;;;16.86;76.38;98972.41;5095867;28;8826;-61
2022/10/24 00:45:35;;;;;;;;;3.40;3.40;;;;;16.87;75.88;98963.31;5095109;28;8818;-62
2022/10/24 00:48:07;;;;;;;;;6.00;6.00;;;;;16.87;75.75;98957.94;5095598;28;8838;-62
2022/10/24 00:50:35;;;;;;;;;1.00;0.00;;;;;16.88;76.08;98970.38;5095923;28;8830;-60
2022/10/24 00:53:02;;;;;;;;;1.00;1.00;;;;;16.90;75.49;98972.88;5095677;28;8895;-61
2022/10/24 00:55:30;;;;;;;;;6.00;6.00;;;;;16.89;76.28;98972.06;5095853;28;8905;-61
2022/10/24 00:58:00;;;;;;;;;4.60;3.80;;;;;16.88;75.50;98972.22;5095662;28;8826;-61
2022/10/24 01:00:28;;;;;;;;;4.00;4.00;;;;;16.86;75.99;98967.03;5095521;28;8886;-61
2022/10/24 01:02:56;;;;;;;;;7.00;6.60;;;;;16.86;75.86;98960.81;5095588;28;8830;-62
2022/10/24 01:05:23;;;;;;;;;4.40;4.40;;;;;16.86;76.04;98958.97;5095522;28;8854;-61
2022/10/24 01:07:51;;;;;;;;;4.00;4.00;;;;;16.89;75.59;98958.59;5095365;28;8833;-61
2022/10/24 01:10:19;;;;;;;;;3.80;3.80;;;;;16.88;76.31;98958.78;5095590;28;8887;-61
2022/10/24 01:12:47;;;;;;;;;3.20;3.20;;;;;16.88;75.47;98954.25;5095664;28;8887;-62
2022/10/24 01:15:14;;;;;;;;;7.00;6.40;;;;;16.87;75.63;98952.56;5095614;28;8899;-60
2022/10/24 01:17:42;;;;;;;;;6.20;6.20;;;;;16.91;75.84;98958.41;5095347;28;8841;-60
2022/10/24 01:20:09;;;;;;;;;3.00;3.00;;;;;16.99;75.42;98950.22;5095271;28;8891;-61
2022/10/24 01:22:37;;;;;;;;;3.40;3.40;;;;;17.07;75.14;98956.34;5095248;28;8849;-62
2022/10/24 01:25:05;;;;;;;;;3.00;3.00;;;;;17.15;74.47;98945.47;5095667;28;8810;-60
2022/10/24 01:27:33;;;;;;;;;6.00;3.00;;;;;17.23;73.90;98956.16;5095240;28;8862;-60
2022/10/24 01:30:01;;;;;;;;;3.40;3.00;;;;;17.30;73.72;98951.69;5095137;28;8822;-62
2022/10/24 01:32:28;;;;;;;;;4.00;3.00;;;;;17.35;73.58;98934.97;5094967;28;8836;-62
2022/10/24 01:34:56;;;;;;;;;1.80;1.80;;;;;17.38;73.45;98929.25;5095379;28;8814;-61
2022/10/24 01:37:24;;;;;;;;;2.20;1.40;;;;;17.38;73.04;98934.63;5094981;28;8818;-62
2022/10/24 01:39:51;;;;;;;;;3.00;2.20;;;;;17.35;73.29;98925.03;5094837;28;8891;-59
2022/10/24 01:42:19;;;;;;;;;1.40;1.00;;;;;17.31;73.23;98923.75;5095200;28;8845;-61
2022/10/24 01:44:46;;;;;;;;;1.00;1.00;;;;;17.32;73.24;98925.41;5094734;28;8903;-62
2022/10/24 01:47:15;;;;;;;;;3.00;3.00;;;;;17.32;73.45;98928.09;5098022;28;8834;-62
2022/10/24 01:49:43;;;;;;;;;3.20;3.20;;;;;17.33;73.05;98916.31;5099590;28;8914;-62
2022/10/24 01:52:11;;;;;;;;;4.00;4.00;;;;;17.33;72.57;98915.47;5099212;28;8922;-61
2022/10/24 01:54:43;;;;;;;;;1.00;1.00;;;;;17.35;72.59;98903.50;5098694;28;8914;-62
2022/10/24 01:57:11;;;;;;;;;4.00;4.00;;;;;17.36;72.28;98910.59;5098665;28;9617;-61
2022/10/24 01:59:38;;;;;;;;;4.80;4.60;;;;;17.38;72.43;98905.03;5098448;28;8826;-62
2022/10/24 02:02:06;;;;;;;;;3.40;3.40;;;;;17.39;72.48;98902.13;5099159;28;9480;-62
2022/10/24 02:04:34;;;;;;;;;3.40;3.00;;;;;17.38;71.91;98897.75;5098711;28;8818;-62
2022/10/24 02:07:02;;;;;;;;;2.20;2.20;;;;;17.38;72.00;98891.56;5099097;28;8888;-62
2022/10/24 02:09:29;;;;;;;;;4.40;4.40;;;;;17.35;72.11;98889.19;5098833;28;8834;-61
2022/10/24 02:11:57;;;;;;;;;1.00;1.00;;;;;17.30;72.78;98879.00;5098757;28;8826;-60
2022/10/24 02:14:25;;;;;;;;;6.00;3.00;;;;;17.31;72.61;98890.63;5098193;28;8913;-61
2022/10/24 02:16:52;;;;;;;;;2.20;2.20;;;;;17.31;71.94;98891.44;5098732;28;8915;-62
2022/10/24 02:19:20;;;;;;;;;3.00;1.00;;;;;17.29;72.17;98884.56;5098050;28;8826;-61
2022/10/24 02:21:47;;;;;;;;;2.60;2.60;;;;;17.29;72.33;98887.25;5097926;28;8833;-62
2022/10/24 02:24:15;;;;;;;;;3.60;3.60;;;;;17.25;72.21;98891.38;5097325;28;8895;-61
2022/10/24 02:26:44;;;;;;;;;3.20;3.20;;;;;17.21;72.13;98877.47;5098415;28;8850;-62
2022/10/24 02:29:11;;;;;;;;;4.00;3.00;;;;;17.19;72.45;98887.59;5097538;28;8841;-62
2022/10/24 02:31:39;;;;;;;;;3.40;3.40;;;;;17.20;72.81;98878.50;5097243;28;8887;-62
2022/10/24 02:34:07;;;;;;;;;6.00;6.00;;;;;17.18;72.61;98880.56;5096939;28;8826;-62
2022/10/24 02:36:34;;;;;;;;;5.20;3.60;;;;;17.18;72.49;98872.47;5096761;28;8846;-62
2022/10/24 02:39:02;;;;;;;;;4.00;3.80;;;;;17.22;72.30;98871.06;5098253;28;8930;-61
2022/10/24 02:41:30;;;;;;;;;4.00;1.80;;;;;17.23;72.20;98871.91;5097629;28;8902;-62
2022/10/24 02:43:57;;;;;;;;;3.00;3.00;;;;;17.21;72.11;98860.47;5097164;28;8818;-61
2022/10/24 02:46:25;;;;;;;;;1.00;1.00;;;;;17.23;72.15;98856.56;5097727;28;9624;-62
2022/10/24 02:48:52;;;;;;;;;3.00;3.00;;;;;17.25;72.43;98861.78;5097455;28;8879;-61
2022/10/24 02:51:20;;;;;;;;;3.00;3.00;;;;;17.34;72.00;98868.69;5098029;28;8818;-62
2022/10/24 02:53:48;;;;;;;;;2.80;1.40;;;;;17.39;71.52;98877.09;5097929;28;8826;-62
2022/10/24 02:56:16;;;;;;;;;3.20;3.00;;;;;17.44;71.32;98858.47;5097957;28;8842;-62
2022/10/24 02:58:43;;;;;;;;;2.20;2.20;;;;;17.48;70.89;98867.84;5096974;28;8865;-61
2022/10/24 03:01:11;;;;;;;;;3.40;3.00;;;;;17.52;71.07;98877.19;5097770;28;8834;-60
2022/10/24 03:03:39;;;;;;;;;4.00;4.00;;;;;17.53;70.69;98874.31;5098076;28;8849;-60
2022/10/24 03:06:06;;;;;;;;;1.80;1.00;;;;;17.51;71.03;98865.59;5098587;28;9581;-62
2022/10/24 03:08:34;;;;;;;;;3.00;3.00;;;;;17.49;70.63;98856.91;5097950;28;8908;-61
2022/10/24 03:11:01;;;;;;;;;1.00;1.00;;;;;17.48;71.11;98860.59;5097864;28;8846;-62
2022/10/24 03:13:29;;;;;;;;;1.00;1.00;;;;;17.47;70.46;98858.94;5097606;28;8865;-61
2022/10/24 03:15:57;;;;;;;;;3.00;1.40;;;;;17.49;70.65;98859.59;5097764;28;8806;-62
2022/10/24 03:18:24;;;;;;;;;3.00;2.60;;;;;17.50;70.43;98858.56;5097695;28;8841;-61
2022/10/24 03:20:52;;;;;;;;;3.00;3.00;;;;;17.51;70.23;98872.84;5097398;28;9474;-61
2022/10/24 03:23:20;;;;;;;;;1.40;1.40;;;;;17.51;70.58;98849.47;5097343;28;8826;-61
2022/10/24 03:25:48;;;;;;;;;3.60;3.00;;;;;17.50;70.03;98858.56;5097234;28;8822;-62
2022/10/24 03:28:16;;;;;;;;;3.00;1.00;;;;;17.52;70.63;98866.44;5097276;28;8922;-61
2022/10/24 03:30:43;;;;;;;;;2.60;0.40;;;;;17.50;70.06;98861.25;5097292;28;8906;-61
2022/10/24 03:33:11;;;;;;;;;3.00;3.00;;;;;17.51;70.39;98856.69;5097229;28;8893;-61
2022/10/24 03:35:38;;;;;;;;;3.80;3.80;;;;;17.49;70.58;98867.66;5097010;28;8906;-60
2022/10/24 03:38:08;;;;;;;;;1.80;1.80;;;;;17.49;70.19;98862.28;5097364;28;8822;-60
2022/10/24 03:40:36;;;;;;;;;3.00;3.00;;;;;17.45;69.88;98865.56;5096332;28;8841;-61
2022/10/24 03:43:04;;;;;;;;;1.00;1.00;;;;;17.44;70.48;98861.16;5096862;28;8838;-61
2022/10/24 03:45:31;;;;;;;;;3.20;3.00;;;;;17.42;70.22;98856.00;5096659;28;8846;-62
2022/10/24 03:47:59;;;;;;;;;0.60;0.60;;;;;17.43;69.91;98852.28;5097193;28;8822;-62
2022/10/24 03:50:26;;;;;;;;;1.00;1.00;;;;;17.42;70.04;98850.63;5096834;28;8838;-62
2022/10/24 03:52:54;;;;;;;;;4.00;3.60;;;;;17.39;69.89;98855.53;5096862;28;8910;-62
2022/10/24 03:55:22;;;;;;;;;3.60;3.60;;;;;17.39;70.49;98866.31;5097022;28;8894;-60
2022/10/24 03:57:49;;;;;;;;;2.20;1.00;;;;;17.37;70.25;98868.34;5096813;28;8842;-62
2022/10/24 04:00:18;;;;;;;;;1.00;1.00;;;;;17.36;70.34;98867.53;5096612;28;8887;-62
2022/10/24 04:02:46;;;;;;;;;0.80;0.80;;;;;17.34;70.55;98868.69;5096210;28;8826;-62
2022/10/24 04:05:13;;;;;;;;;3.00;3.00;;;;;17.34;70.05;98874.94;5096701;28;8834;-62
2022/10/24 04:07:41;;;;;;;;;3.00;3.00;;;;;17.34;70.23;98869.56;5097014;28;8842;-60
2022/10/24 04:10:09;;;;;;;;;3.00;2.60;;;;;17.32;70.42;98860.81;5095375;28;9492;-61
2022/10/24 04:12:36;;;;;;;;;1.00;1.00;;;;;17.29;70.17;98861.19;5096572;28;8845;-60
2022/10/24 04:15:04;;;;;;;;;0.60;0.60;;;;;17.27;70.51;98865.94;5096111;28;8806;-61
2022/10/24 04:17:32;;;;;;;;;3.00;3.00;;;;;17.25;70.45;98869.84;5095967;28;8802;-60
2022/10/24 04:20:00;;;;;;;;;3.00;3.00;;;;;17.19;70.49;98866.06;5095741;28;8830;-60
2022/10/24 04:22:27;;;;;;;;;3.20;3.20;;;;;17.20;70.65;98866.88;5095631;28;8914;-61
2022/10/24 04:24:55;;;;;;;;;1.00;1.00;;;;;17.18;70.73;98868.94;5096167;28;8822;-61
2022/10/24 04:27:23;;;;;;;;;0.80;0.80;;;;;17.17;70.53;98878.03;5095734;28;8850;-60
2022/10/24 04:29:51;;;;;;;;;3.80;2.60;;;;;17.19;70.32;98878.69;5095466;28;9515;-60
2022/10/24 04:32:18;;;;;;;;;0.20;0.20;;;;;17.19;70.22;98879.53;5095510;28;8842;-60
2022/10/24 04:34:46;;;;;;;;;5.20;4.20;;;;;17.18;70.63;98867.09;5095335;28;8818;-62
2022/10/24 04:37:13;;;;;;;;;3.00;1.80;;;;;17.19;70.27;98882.22;5095288;28;8848;-62
2022/10/24 04:39:41;;;;;;;;;1.00;1.00;;;;;17.20;69.96;98883.88;5095746;28;8830;-60
2022/10/24 04:42:09;;;;;;;;;2.20;1.80;;;;;17.21;69.92;98868.53;5095078;28;8849;-60
2022/10/24 04:44:37;;;;;;;;;1.00;1.00;;;;;17.21;70.60;98880.16;5094383;28;8822;-60
2022/10/24 04:47:05;;;;;;;;;0.20;0.00;;;;;17.19;70.45;98860.69;5094428;28;8899;-60
2022/10/24 04:49:32;;;;;;;;;1.00;1.00;;;;;17.20;70.29;98867.72;5094753;28;8830;-59
2022/10/24 04:52:00;;;;;;;;;1.00;1.00;;;;;17.23;70.22;98861.16;5094578;28;8846;-62
2022/10/24 04:54:28;;;;;;;;;1.00;1.00;;;;;17.21;70.00;98855.09;5094397;28;8860;-61
2022/10/24 04:56:55;;;;;;;;;4.00;3.80;;;;;17.22;69.78;98863.00;5095043;28;9624;-62
2022/10/24 04:59:23;;;;;;;;;1.00;1.00;;;;;17.24;69.41;98857.44;5093206;28;8849;-59
2022/10/24 05:01:51;;;;;;;;;1.00;1.00;;;;;17.25;69.60;98859.09;5093121;28;8822;-62
2022/10/24 05:04:19;;;;;;;;;0.40;0.40;;;;;17.26;69.60;98872.34;5094148;28;8842;-60
2022/10/24 05:06:47;;;;;;;;;3.00;2.60;;;;;17.27;69.32;98857.88;5093878;28;8903;-60
2022/10/24 05:09:14;;;;;;;;;1.00;1.00;;;;;17.26;69.54;98853.53;5093698;28;8838;-60
2022/10/24 05:11:42;;;;;;;;;0.40;0.40;;;;;17.27;69.66;98865.94;5093058;28;9620;-59
2022/10/24 05:14:10;;;;;;;;;2.20;2.20;;;;;17.28;69.13;98853.31;5091818;28;8826;-62
2022/10/24 05:16:38;;;;;;;;;0.00;0.00;;;;;17.27;68.84;98847.13;5091479;28;8873;-62
2022/10/24 05:19:06;;;;;;;;;1.00;1.00;;;;;17.26;68.77;98853.53;5091422;28;8818;-62
2022/10/24 05:21:34;;;;;;;;;3.00;3.00;;;;;17.24;68.91;98858.25;5093710;28;8829;-60
2022/10/24 05:24:01;;;;;;;;;1.00;1.00;;;;;17.23;69.16;98855.75;5095291;28;8818;-61
2022/10/24 05:26:29;;;;;;;;;1.00;1.00;;;;;17.20;69.15;98846.22;5095516;28;8898;-61
2022/10/24 05:28:57;;;;;;;;;1.00;1.00;;;;;17.19;68.75;98849.94;5095280;28;8911;-61
2022/10/24 05:31:25;;;;;;;;;1.00;1.00;;;;;17.16;69.15;98855.66;5095619;28;8830;-60
2022/10/24 05:33:52;;;;;;;;;3.00;3.00;;;;;17.16;69.20;98844.91;5094723;28;8960;-62
2022/10/24 05:36:20;;;;;;;;;1.00;1.00;;;;;17.16;69.54;98868.31;5094633;28;8826;-60
2022/10/24 05:38:48;;;;;;;;;1.00;1.00;;;;;17.15;68.75;98859.38;5095860;28;9556;-62
2022/10/24 05:41:15;;;;;;;;;2.60;2.60;;;;;17.15;69.11;98870.16;5094274;28;8837;-59
2022/10/24 05:43:43;;;;;;;;;1.80;1.00;;;;;17.17;68.77;98861.91;5094555;28;8826;-60
2022/10/24 05:46:11;;;;;;;;;0.00;0.00;;;;;17.18;68.53;98869.78;5094490;28;8873;-62
2022/10/24 05:48:40;;;;;;;;;1.00;1.00;;;;;17.17;68.18;98870.78;5095025;28;8833;-60
2022/10/24 05:51:08;;;;;;;;;0.40;0.40;;;;;17.17;68.43;98856.50;5095368;28;8838;-61
2022/10/24 05:53:36;;;;;;;;;2.20;1.80;;;;;17.16;68.10;98865.63;5095781;28;8826;-60
2022/10/24 05:56:04;;;;;;;;;1.00;1.00;;;;;17.18;67.81;98864.41;5095344;28;8826;-61
2022/10/24 05:58:32;;;;;;;;;1.00;1.00;;;;;17.20;67.71;98869.56;5095169;28;8842;-60
2022/10/24 06:01:00;;;;;;;;;1.00;1.00;;;;;17.18;67.91;98874.31;5095594;28;8834;-62
2022/10/24 06:03:27;;;;;;;;;1.00;0.80;;;;;17.14;68.36;98876.56;5095128;28;8830;-60
2022/10/24 06:05:55;;;;;;;;;1.00;1.00;;;;;17.13;68.19;98888.34;5094577;28;8822;-61
2022/10/24 06:08:23;;;;;;;;;0.00;0.00;;;;;17.14;68.27;98890.00;5095140;28;8826;-61
2022/10/24 06:10:52;;;;;;;;;0.60;0.60;;;;;17.15;68.33;98888.97;5093710;28;9570;-62
2022/10/24 06:13:20;;;;;;;;;1.00;1.00;;;;;17.13;67.69;98882.97;5093389;28;8842;-62
2022/10/24 06:15:48;;;;;;;;;0.60;0.60;;;;;17.12;68.10;98899.28;5093162;28;8822;-61
2022/10/24 06:18:15;;;;;;;;;0.40;0.40;;;;;17.12;68.04;98908.22;5093638;28;8844;-60
2022/10/24 06:20:43;;;;;;;;;3.00;2.20;;;;;17.11;67.74;98895.78;5093413;28;9590;-60
2022/10/24 06:23:11;;;;;;;;;2.20;1.00;;;;;17.12;67.71;98913.59;5094650;28;8872;-62
2022/10/24 06:25:39;;;;;;;;;1.00;1.00;;;;;17.11;67.33;98905.69;5095255;28;9531;-62
2022/10/24 06:28:06;;;;;;;;;1.00;1.00;;;;;17.10;67.47;98894.09;5095994;28;8862;-60
2022/10/24 06:30:39;;;;;;;;;1.00;1.00;;;;;17.09;67.71;98897.81;5096074;28;8838;-60
2022/10/24 06:33:07;;;;;;;;;2.20;2.20;;;;;17.10;67.16;98910.22;5096305;28;8849;-61
2022/10/24 06:35:35;;;;;;;;;0.00;0.00;;;;;17.12;67.01;98910.91;5096055;28;8842;-60
2022/10/24 06:38:03;;;;;;;;;0.40;0.00;;;;;17.12;67.28;98900.13;5095469;28;8844;-60
2022/10/24 06:40:30;;;;;;;;;3.00;3.00;;;;;17.11;67.02;98920.00;5096321;28;8822;-61
2022/10/24 06:42:58;;;;;;;;;2.80;2.80;;;;;17.09;67.33;98922.03;5095854;28;9547;-60
2022/10/24 06:45:26;;;;;;;;;2.60;1.00;;;;;17.10;67.69;98928.25;5094498;28;8860;-60
2022/10/24 06:47:54;;;;;;;;;2.60;1.00;;;;;17.09;67.50;98921.19;5094750;28;8837;-60
2022/10/24 06:50:22;;;;;;;;;1.40;1.40;;;;;17.09;67.22;98926.59;5095033;28;8844;-60
2022/10/24 06:52:50;;;;;;;;;1.00;1.00;;;;;17.15;67.44;98929.34;5094343;28;9533;-61
2022/10/24 06:55:18;;;;;;;;;1.00;0.60;;;;;17.19;66.64;98927.97;5094528;28;8862;-60
2022/10/24 06:57:46;;;;;;;;;1.00;1.00;;;;;17.21;66.59;98933.97;5094083;28;8845;-61
2022/10/24 07:00:14;;;;;;;;;1.00;1.00;;;;;17.22;66.75;98927.56;5094489;28;8846;-62
2022/10/24 07:02:42;;;;;;;;;1.00;1.00;;;;;17.23;67.04;98937.31;5095174;28;9179;-60
2022/10/24 07:05:11;;;;;;;;;1.00;0.80;;;;;17.25;66.89;98931.75;5092993;28;8833;-60
2022/10/24 07:07:39;;;;;;;;;0.00;0.00;;;;;17.25;67.16;98920.97;5094626;28;8858;-62
2022/10/24 07:10:07;;;;;;;;;0.00;0.00;;;;;17.29;66.77;98936.56;5095180;28;8829;-60
2022/10/24 07:12:35;;;;;;;;;1.40;1.40;;;;;17.34;66.34;98934.16;5095739;28;9554;-61
2022/10/24 07:15:03;;;;;;;;;1.00;1.00;;;;;17.37;66.49;98938.31;5096002;28;8821;-60
2022/10/24 07:17:31;;;;;;;;;1.00;1.00;;;;;17.42;66.82;98941.28;5094926;28;8837;-61
2022/10/24 07:19:59;;;;;;;;;1.00;1.00;;;;;17.44;66.73;98945.47;5095051;28;8868;-61
2022/10/24 07:22:27;;;;;;;;;2.20;1.00;;;;;17.45;66.92;98952.50;5093037;28;8890;-60
2022/10/24 07:24:59;;;;;;;;;1.40;1.00;;;;;17.48;66.60;98952.13;5091610;28;8869;-60
2022/10/24 07:27:26;;;;;;;;;1.40;1.40;;;;;17.50;66.04;98954.63;5091972;28;8848;-59
2022/10/24 07:29:54;;;;;;;;;0.00;0.00;;;;;17.52;66.11;98952.56;5092370;28;9524;-60
2022/10/24 07:32:22;;;;;;;;;0.80;0.60;;;;;17.55;65.70;98947.66;5092630;28;8842;-61
2022/10/24 07:34:50;;;;;;;;;3.20;2.20;;;;;17.57;66.19;98945.63;5092114;28;8876;-62
2022/10/24 07:37:18;;;;;;;;;1.00;1.00;;;;;17.64;65.98;98946.53;5092989;28;8829;-62
2022/10/24 07:39:46;;;;;;;;;1.00;1.00;;;;;17.70;65.59;98953.00;5093036;28;8830;-61
2022/10/24 07:42:13;;;;;;;;;0.20;0.20;;;;;17.78;65.25;98961.78;5093156;28;8945;-60
2022/10/24 07:44:41;;;;;;;;;0.20;0.20;;;;;17.88;65.07;98956.94;5092733;28;8887;-62
2022/10/24 07:47:10;;;;;;;;;0.00;0.00;;;;;17.96;65.16;98955.94;5092927;28;8858;-61
2022/10/24 07:49:37;;;;;;;;;1.40;1.40;;;;;18.05;64.59;98935.91;5094067;28;8853;-61
2022/10/24 07:52:05;;;;;;;;;1.40;1.40;;;;;18.11;64.66;98945.94;5093983;28;8850;-60
2022/10/24 07:54:33;;;;;;;;;1.00;0.80;;;;;18.13;65.10;98936.63;5093724;28;8973;-61
2022/10/24 07:57:04;;;;;;;;;0.60;0.60;;;;;18.14;65.01;98943.69;5093492;28;8850;-60
2022/10/24 07:59:32;;;;;;;;;0.80;0.80;;;;;18.14;64.79;98951.78;5094159;28;8865;-60
2022/10/24 08:02:15;;;;;;;;;0.80;0.80;;;;;18.16;64.69;98949.75;5093642;28;8868;-61
2022/10/24 08:04:43;;;;;;;;;3.00;1.00;;;;;18.22;64.46;98956.22;5094306;28;8847;-61
2022/10/24 08:07:11;;;;;;;;;1.00;1.00;;;;;18.33;63.83;98956.53;5092047;28;8830;-61
2022/10/24 08:09:40;;;;;;;;;0.00;0.00;;;;;18.47;63.54;98952.94;5090782;28;8960;-59
2022/10/24 08:12:08;;;;;;;;;2.20;2.20;;;;;18.63;63.27;98944.53;5090324;28;8864;-62
2022/10/24 08:14:35;;;;;;;;;3.20;3.00;;;;;18.74;62.93;98960.16;5090437;28;8866;-61
2022/10/24 08:17:04;;;;;;;;;2.20;1.00;;;;;18.80;62.76;98967.47;5090437;28;8833;-60
2022/10/24 08:19:32;;;;;;;;;1.00;0.60;;;;;18.85;62.54;98962.31;5090448;28;9152;-60
2022/10/24 08:22:01;;;;;;;;;0.60;0.60;;;;;18.88;62.61;98978.09;5091108;28;8860;-60
2022/10/24 08:24:29;;;;;;;;;0.00;0.00;;;;;18.85;62.22;98969.56;5090905;28;8845;-60
2022/10/24 08:26:56;;;;;;;;;0.20;0.00;;;;;18.85;62.33;98967.72;5090783;28;8853;-62
2022/10/24 08:29:24;;;;;;;;;0.80;0.80;;;;;18.88;62.51;98964.59;5090630;28;8829;-60
2022/10/24 08:31:52;;;;;;;;;1.00;1.00;;;;;18.94;61.95;98966.53;5089963;28;9584;-60
2022/10/24 08:34:20;;;;;;;;;1.00;0.60;;;;;18.98;61.91;98970.47;5090300;28;8988;-62
2022/10/24 08:36:48;;;;;;;;;1.00;1.00;;;;;19.05;61.94;98981.31;5091006;28;8992;-60
2022/10/24 08:39:15;;;;;;;;;0.80;0.00;;;;;19.07;61.59;98980.09;5092084;28;8856;-61
2022/10/24 08:41:45;;;;;;;;;0.00;0.00;;;;;19.04;61.49;98980.47;5091897;28;9622;-61
2022/10/24 08:44:14;;;;;;;;;0.60;0.20;;;;;19.00;61.67;98994.56;5092472;28;8826;-61
2022/10/24 08:46:43;;;;;;;;;0.00;0.00;;;;;18.94;62.07;98977.31;5092484;28;8822;-60
2022/10/24 08:49:11;;;;;;;;;0.00;0.00;;;;;18.91;61.96;98990.38;5091672;28;8837;-60
2022/10/24 08:51:39;;;;;;;;;1.00;1.00;;;;;18.85;62.27;98981.22;5091698;28;8954;-59
2022/10/24 08:54:07;;;;;;;;;1.00;0.00;;;;;18.85;62.16;98967.72;5089464;28;8830;-60
2022/10/24 08:56:35;;;;;;;;;1.00;0.40;;;;;18.84;62.20;98978.69;5088689;28;9199;-61
2022/10/24 08:59:03;;;;;;;;;0.60;0.20;;;;;18.85;61.91;98983.91;5090423;28;8834;-60
2022/10/24 09:01:31;;;;;;;;;1.00;1.00;;;;;18.86;62.07;98982.88;5089144;28;8844;-61
2022/10/24 09:03:59;;;;;;;;;1.00;1.00;;;;;18.86;61.73;98977.47;5087659;28;8858;-62
2022/10/24 09:06:28;;;;;;;;;0.00;0.00;;;;;18.85;61.59;98980.34;5088677;28;8837;-62
2022/10/24 09:08:57;;;;;;;;;2.60;0.80;;;;;18.81;62.07;98982.63;5089847;28;9641;-60
2022/10/24 09:11:25;;;;;;;;;0.00;0.00;;;;;18.75;62.24;98983.41;5091055;28;8837;-61
2022/10/24 09:13:53;;;;;;;;;1.00;1.00;;;;;18.73;61.74;98974.69;5091354;28;8856;-61
2022/10/24 09:16:21;;;;;;;;;1.00;1.00;;;;;18.73;61.94;98993.56;5091159;28;8822;-61
2022/10/24 09:18:48;;;;;;;;;0.40;0.40;;;;;18.75;61.59;98980.69;5091853;28;8829;-60
2022/10/24 09:21:16;;;;;;;;;1.00;1.00;;;;;18.76;61.79;98993.16;5091448;28;8838;-61
2022/10/24 09:23:45;;;;;;;;;0.40;0.40;;;;;18.74;61.48;98987.13;5091226;28;9516;-61
2022/10/24 09:26:12;;;;;;;;;0.00;0.00;;;;;18.72;61.25;98996.44;5090241;28;8845;-61
2022/10/24 09:28:40;;;;;;;;;0.20;0.20;;;;;18.73;61.60;98987.34;5090221;28;8989;-59
2022/10/24 09:31:08;;;;;;;;;0.00;0.00;;;;;18.76;61.89;98986.94;5090214;28;9547;-60
2022/10/24 09:33:39;;;;;;;;;0.00;0.00;;;;;18.79;61.60;98992.78;5089989;28;8860;-62
2022/10/24 09:36:07;;;;;;;;;0.00;0.00;;;;;18.86;61.13;99007.16;5089913;28;9518;-61
2022/10/24 09:38:35;;;;;;;;;1.00;0.00;;;;;18.91;61.21;99001.97;5090739;28;8837;-61
2022/10/24 09:41:03;;;;;;;;;0.00;0.00;;;;;18.98;60.81;99005.56;5090667;28;8956;-60
2022/10/24 09:43:31;;;;;;;;;0.40;0.40;;;;;19.04;60.82;99006.66;5090174;28;8833;-63
2022/10/24 09:45:59;;;;;;;;;0.80;0.80;;;;;19.16;60.58;99003.19;5089176;28;8936;-60
2022/10/24 09:48:27;;;;;;;;;0.00;0.00;;;;;19.18;60.65;99006.50;5088605;28;8845;-61
2022/10/24 09:50:57;;;;;;;;;0.00;0.00;;;;;19.11;60.52;99005.63;5089883;28;8846;-62
2022/10/24 09:53:25;;;;;;;;;0.00;0.00;;;;;19.05;60.90;99013.72;5089481;28;9042;-67
2022/10/24 09:55:53;;;;;;;;;3.00;3.00;;;;;18.96;60.68;99015.72;5090206;28;8922;-60
2022/10/24 09:58:21;;;;;;;;;1.00;1.00;;;;;18.91;61.00;99025.44;5090056;28;8922;-60
2022/10/24 10:00:49;;;;;;;;;0.40;0.40;;;;;18.86;60.87;99023.34;5091038;28;8837;-62
2022/10/24 10:03:16;;;;;;;;;0.00;0.00;;;;;18.80;61.28;99036.75;5091512;28;8834;-60
2022/10/24 10:05:50;;;;;;;;;0.00;0.00;;;;;18.74;61.57;99043.78;5089978;28;8846;-60
2022/10/24 10:08:18;;;;;;;;;0.00;0.00;;;;;18.67;61.89;99052.88;5093399;28;9345;-62
2022/10/24 10:10:46;;;;;;;;;0.00;0.00;;;;;18.61;61.99;99043.66;5094086;28;8911;-60
2022/10/24 10:13:17;;;;;;;;;0.00;0.00;;;;;18.60;62.18;99046.59;5092882;28;8838;-62
2022/10/24 10:15:45;;;;;;;;;1.00;0.60;;;;;18.55;62.23;99055.25;5094325;28;9507;-60
2022/10/24 10:18:13;;;;;;;;;0.00;0.00;;;;;18.53;62.08;99051.91;5093062;28;9231;-60
2022/10/24 10:20:40;;;;;;;;;0.60;0.60;;;;;18.53;62.01;99056.47;5094009;28;8849;-59
2022/10/24 10:23:08;;;;;;;;;0.60;0.60;;;;;18.55;61.97;99046.31;5092716;28;8980;-60
2022/10/24 10:25:36;;;;;;;;;0.00;0.00;;;;;18.55;62.17;99039.06;5091898;28;8841;-60
2022/10/24 10:28:04;;;;;;;;;0.00;0.00;;;;;18.54;61.95;99048.19;5092902;28;8857;-59
2022/10/24 10:30:33;;;;;;;;;1.00;0.00;;;;;18.54;61.85;99055.44;5092273;28;8972;-60
2022/10/24 10:33:00;;;;;;;;;0.00;0.00;;;;;18.49;62.10;99056.03;5093745;28;8829;-60
2022/10/24 10:35:29;;;;;;;;;0.60;0.60;;;;;18.47;62.50;99063.47;5094160;28;8957;-59
2022/10/24 10:37:58;;;;;;;;;0.80;0.20;;;;;18.44;62.38;99071.13;5094479;28;8834;-61
2022/10/24 10:40:26;;;;;;;;;0.00;0.00;;;;;18.43;62.60;99070.28;5094657;28;8833;-60
2022/10/24 10:42:54;;;;;;;;;0.00;0.00;;;;;18.45;62.49;99076.31;5094683;28;8815;-59
2022/10/24 10:45:21;;;;;;;;;1.00;1.00;;;;;18.47;62.66;99076.97;5094227;28;8834;-59
2022/10/24 10:47:50;;;;;;;;;0.80;0.40;;;;;18.51;62.54;99086.31;5094527;28;8826;-60
2022/10/24 10:50:18;;;;;;;;;0.00;0.00;;;;;18.53;62.34;99073.47;5094616;28;8821;-60
2022/10/24 10:52:46;;;;;;;;;0.40;0.40;;;;;18.61;62.32;99081.44;5094639;28;8852;-60
2022/10/24 10:55:14;;;;;;;;;0.00;0.00;;;;;18.67;62.24;99079.84;5093242;28;8853;-62
2022/10/24 10:57:42;;;;;;;;;0.00;0.00;;;;;18.65;62.63;99077.31;5093903;28;8870;-61
2022/10/24 11:00:10;;;;;;;;;1.00;0.20;;;;;18.65;62.65;99081.88;5092602;28;8846;-60
2022/10/24 11:02:38;;;;;;;;;0.00;0.00;;;;;18.66;62.69;99078.19;5091291;28;8817;-61
2022/10/24 11:05:06;;;;;;;;;1.80;0.80;;;;;18.72;62.41;99097.09;5090059;28;8814;-60
2022/10/24 11:07:34;;;;;;;;;1.00;0.00;;;;;18.74;62.38;99092.34;5091292;28;8850;-61
2022/10/24 11:10:02;;;;;;;;;1.00;0.00;;;;;18.74;62.26;99105.00;5090284;28;8840;-60
2022/10/24 11:12:30;;;;;;;;;0.00;0.00;;;;;18.68;62.34;99098.50;5091820;28;9604;-61
2022/10/24 11:14:58;;;;;;;;;1.80;1.00;;;;;18.68;62.39;99105.78;5090846;28;8902;-59
2022/10/24 11:17:26;;;;;;;;;0.00;0.00;;;;;18.67;62.54;99102.25;5091270;28;8950;-60
2022/10/24 11:19:54;;;;;;;;;0.80;0.00;;;;;18.64;62.42;99116.13;5090768;28;8845;-62
2022/10/24 11:22:22;;;;;;;;;0.20;0.20;;;;;18.62;62.57;99103.84;5092213;28;8883;-60
2022/10/24 11:24:50;;;;;;;;;1.80;1.00;;;;;18.58;62.53;99100.72;5092085;28;8857;-59
2022/10/24 11:27:20;;;;;;;;;0.60;0.20;;;;;18.55;62.34;99101.09;5091720;28;8915;-59
2022/10/24 11:29:48;;;;;;;;;0.00;0.00;;;;;18.58;62.33;99103.41;5090388;28;8830;-61
2022/10/24 11:32:16;;;;;;;;;1.20;0.20;;;;;18.62;62.32;99115.50;5089102;28;8842;-61
2022/10/24 11:34:44;;;;;;;;;0.60;0.00;;;;;18.61;62.30;99113.78;5088923;28;8885;-60
2022/10/24 11:37:12;;;;;;;;;0.00;0.00;;;;;18.66;62.64;99118.63;5089933;28;8818;-60
2022/10/24 11:39:40;;;;;;;;;0.20;0.00;;;;;18.72;62.13;99104.34;5089398;28;8853;-60
2022/10/24 11:42:09;;;;;;;;;1.00;0.00;;;;;18.73;61.98;99112.25;5089514;28;8841;-61
2022/10/24 11:44:37;;;;;;;;;0.00;0.00;;;;;18.77;61.92;99108.16;5089955;28;8852;-61